sensor_id;sensor_type;location;lat;lon;timestamp;temperature;humidity
28835;DHT22;15969;51.536;11.884;2022-11-02T00:00:39;10.10;99.90
28835;DHT22;15969;51.536;11.884;2022-11-02T00:03:05;9.90;99.90
28835;DHT22;15969;51.536;11.884;2022-11-02T00:05:31;9.90;99.90
28835;DHT22;15969;51.536;11.884;2022-11-02T00:07:57;9.90;99.90
28835;DHT22;15969;51.536;11.884;2022-11-02T00:10:23;9.90;99.90
28835;DHT22;15969;51.536;11.884;2022-11-02T00:12:50;9.70;99.90
28835;DHT22;15969;51.536;11.884;2022-11-02T00:15:17;9.70;99.90
28835;DHT22;15969;51.536;11.884;2022-11-02T00:17:46;9.70;99.90
28835;DHT22;15969;51.536;11.884;2022-11-02T00:20:15;9.70;99.90
28835;DHT22;15969;51.536;11.884;2022-11-02T00:22:42;9.70;99.90
28835;DHT22;15969;51.536;11.884;2022-11-02T00:25:09;9.80;99.90
28835;DHT22;15969;51.536;11.884;2022-11-02T00:27:37;9.90;99.90
28835;DHT22;15969;51.536;11.884;2022-11-02T00:30:05;9.90;99.90
28835;DHT22;15969;51.536;11.884;2022-11-02T00:32:31;10.00;99.90
28835;DHT22;15969;51.536;11.884;2022-11-02T00:34:57;10.00;99.90
28835;DHT22;15969;51.536;11.884;2022-11-02T00:37:22;9.90;99.90
28835;DHT22;15969;51.536;11.884;2022-11-02T00:39:48;9.90;99.90
28835;DHT22;15969;51.536;11.884;2022-11-02T00:42:14;9.80;99.90
28835;DHT22;15969;51.536;11.884;2022-11-02T00:44:40;9.70;99.90
28835;DHT22;15969;51.536;11.884;2022-11-02T00:47:06;9.70;99.90
28835;DHT22;15969;51.536;11.884;2022-11-02T00:49:32;9.70;99.90
28835;DHT22;15969;51.536;11.884;2022-11-02T00:51:57;9.60;99.90
28835;DHT22;15969;51.536;11.884;2022-11-02T00:54:23;9.60;99.90
28835;DHT22;15969;51.536;11.884;2022-11-02T00:56:49;9.70;99.90
28835;DHT22;15969;51.536;11.884;2022-11-02T00:59:14;9.60;99.90
28835;DHT22;15969;51.536;11.884;2022-11-02T01:01:40;9.60;99.90
28835;DHT22;15969;51.536;11.884;2022-11-02T01:04:15;9.60;99.90
28835;DHT22;15969;51.536;11.884;2022-11-02T01:06:42;9.60;99.90
28835;DHT22;15969;51.536;11.884;2022-11-02T01:09:09;9.60;99.90
28835;DHT22;15969;51.536;11.884;2022-11-02T01:11:35;9.60;99.90
28835;DHT22;15969;51.536;11.884;2022-11-02T01:14:01;9.60;99.90
28835;DHT22;15969;51.536;11.884;2022-11-02T01:16:26;9.70;99.90
28835;DHT22;15969;51.536;11.884;2022-11-02T01:18:53;9.80;99.90
28835;DHT22;15969;51.536;11.884;2022-11-02T01:21:20;9.90;99.90
28835;DHT22;15969;51.536;11.884;2022-11-02T01:23:46;10.00;99.90
28835;DHT22;15969;51.536;11.884;2022-11-02T01:26:12;10.10;99.90
28835;DHT22;15969;51.536;11.884;2022-11-02T01:28:38;10.10;99.90
28835;DHT22;15969;51.536;11.884;2022-11-02T01:31:05;10.20;99.90
28835;DHT22;15969;51.536;11.884;2022-11-02T01:33:31;10.30;99.90
28835;DHT22;15969;51.536;11.884;2022-11-02T01:35:58;10.20;99.90
28835;DHT22;15969;51.536;11.884;2022-11-02T01:38:27;10.20;99.90
28835;DHT22;15969;51.536;11.884;2022-11-02T01:40:52;10.20;99.90
28835;DHT22;15969;51.536;11.884;2022-11-02T01:43:19;10.10;99.90
28835;DHT22;15969;51.536;11.884;2022-11-02T01:46:03;10.00;99.90
28835;DHT22;15969;51.536;11.884;2022-11-02T01:51:15;9.90;99.90
28835;DHT22;15969;51.536;11.884;2022-11-02T01:53:46;9.80;99.90
28835;DHT22;15969;51.536;11.884;2022-11-02T01:56:15;9.70;99.90
28835;DHT22;15969;51.536;11.884;2022-11-02T01:58:45;9.70;99.90
28835;DHT22;15969;51.536;11.884;2022-11-02T02:01:13;9.70;99.90
28835;DHT22;15969;51.536;11.884;2022-11-02T02:03:39;9.70;99.90
28835;DHT22;15969;51.536;11.884;2022-11-02T02:06:08;9.60;99.90
28835;DHT22;15969;51.536;11.884;2022-11-02T02:08:39;9.50;99.90
28835;DHT22;15969;51.536;11.884;2022-11-02T02:11:32;9.40;99.90
28835;DHT22;15969;51.536;11.884;2022-11-02T02:25:27;9.30;99.90
28835;DHT22;15969;51.536;11.884;2022-11-02T02:31:18;9.40;99.90
28835;DHT22;15969;51.536;11.884;2022-11-02T02:34:13;9.50;99.90
28835;DHT22;15969;51.536;11.884;2022-11-02T02:39:50;9.50;99.90
28835;DHT22;15969;51.536;11.884;2022-11-02T02:42:35;9.40;99.90
28835;DHT22;15969;51.536;11.884;2022-11-02T02:45:33;9.40;99.90
28835;DHT22;15969;51.536;11.884;2022-11-02T02:48:38;9.40;99.90
28835;DHT22;15969;51.536;11.884;2022-11-02T02:51:03;9.40;99.90
28835;DHT22;15969;51.536;11.884;2022-11-02T02:53:37;9.30;99.90
28835;DHT22;15969;51.536;11.884;2022-11-02T02:56:06;9.20;99.90
28835;DHT22;15969;51.536;11.884;2022-11-02T02:58:49;9.30;99.90
28835;DHT22;15969;51.536;11.884;2022-11-02T03:01:18;9.30;99.90
28835;DHT22;15969;51.536;11.884;2022-11-02T03:03:44;9.40;99.90
28835;DHT22;15969;51.536;11.884;2022-11-02T03:06:18;9.40;99.90
28835;DHT22;15969;51.536;11.884;2022-11-02T03:09:05;9.40;99.90
28835;DHT22;15969;51.536;11.884;2022-11-02T03:17:58;9.20;99.90
28835;DHT22;15969;51.536;11.884;2022-11-02T03:20:52;9.10;99.90
28835;DHT22;15969;51.536;11.884;2022-11-02T03:23:30;9.20;99.90
28835;DHT22;15969;51.536;11.884;2022-11-02T03:37:00;9.40;99.90
28835;DHT22;15969;51.536;11.884;2022-11-02T03:39:47;9.50;99.90
28835;DHT22;15969;51.536;11.884;2022-11-02T03:42:18;9.50;99.90
28835;DHT22;15969;51.536;11.884;2022-11-02T03:44:49;9.60;99.90
28835;DHT22;15969;51.536;11.884;2022-11-02T03:47:20;9.60;99.90
28835;DHT22;15969;51.536;11.884;2022-11-02T03:49:48;9.70;99.90
28835;DHT22;15969;51.536;11.884;2022-11-02T03:52:20;9.70;99.90
28835;DHT22;15969;51.536;11.884;2022-11-02T03:54:57;9.70;99.90
28835;DHT22;15969;51.536;11.884;2022-11-02T03:57:48;9.80;99.90
28835;DHT22;15969;51.536;11.884;2022-11-02T04:00:23;9.90;99.90
28835;DHT22;15969;51.536;11.884;2022-11-02T04:02:55;9.80;99.90
28835;DHT22;15969;51.536;11.884;2022-11-02T04:05:31;9.90;99.90
28835;DHT22;15969;51.536;11.884;2022-11-02T04:07:58;9.90;99.90
28835;DHT22;15969;51.536;11.884;2022-11-02T04:10:43;9.90;99.90
28835;DHT22;15969;51.536;11.884;2022-11-02T04:13:28;9.90;99.90
28835;DHT22;15969;51.536;11.884;2022-11-02T04:16:13;10.00;99.90
28835;DHT22;15969;51.536;11.884;2022-11-02T04:18:39;9.90;99.90
28835;DHT22;15969;51.536;11.884;2022-11-02T04:21:23;9.90;99.90
28835;DHT22;15969;51.536;11.884;2022-11-02T04:23:49;10.00;99.90
28835;DHT22;15969;51.536;11.884;2022-11-02T04:26:34;10.00;99.90
28835;DHT22;15969;51.536;11.884;2022-11-02T04:28:59;10.00;99.90
28835;DHT22;15969;51.536;11.884;2022-11-02T04:31:25;10.00;99.90
28835;DHT22;15969;51.536;11.884;2022-11-02T04:33:51;10.00;99.90
28835;DHT22;15969;51.536;11.884;2022-11-02T04:36:16;10.00;99.90
28835;DHT22;15969;51.536;11.884;2022-11-02T04:38:42;10.00;99.90
28835;DHT22;15969;51.536;11.884;2022-11-02T04:41:10;10.00;99.90
28835;DHT22;15969;51.536;11.884;2022-11-02T04:43:56;10.00;99.90
28835;DHT22;15969;51.536;11.884;2022-11-02T04:46:25;10.10;99.90
28835;DHT22;15969;51.536;11.884;2022-11-02T04:48:54;10.10;99.90
28835;DHT22;15969;51.536;11.884;2022-11-02T04:51:22;10.10;99.90
28835;DHT22;15969;51.536;11.884;2022-11-02T04:53:49;10.10;99.90
28835;DHT22;15969;51.536;11.884;2022-11-02T04:56:16;10.10;99.90
28835;DHT22;15969;51.536;11.884;2022-11-02T04:58:42;10.10;99.90
28835;DHT22;15969;51.536;11.884;2022-11-02T05:01:13;10.10;99.90
28835;DHT22;15969;51.536;11.884;2022-11-02T05:03:41;10.10;99.90
28835;DHT22;15969;51.536;11.884;2022-11-02T05:06:08;10.00;99.90
28835;DHT22;15969;51.536;11.884;2022-11-02T05:08:35;10.00;99.90
28835;DHT22;15969;51.536;11.884;2022-11-02T05:11:01;10.00;99.90
28835;DHT22;15969;51.536;11.884;2022-11-02T05:13:27;10.00;99.90
28835;DHT22;15969;51.536;11.884;2022-11-02T05:15:57;10.00;99.90
28835;DHT22;15969;51.536;11.884;2022-11-02T05:18:24;10.00;99.90
28835;DHT22;15969;51.536;11.884;2022-11-02T05:20:51;10.00;99.90
28835;DHT22;15969;51.536;11.884;2022-11-02T05:23:18;10.00;99.90
28835;DHT22;15969;51.536;11.884;2022-11-02T05:25:58;10.00;99.90
28835;DHT22;15969;51.536;11.884;2022-11-02T05:28:26;10.10;99.90
28835;DHT22;15969;51.536;11.884;2022-11-02T05:30:53;10.10;99.90
28835;DHT22;15969;51.536;11.884;2022-11-02T05:33:19;10.00;99.90
28835;DHT22;15969;51.536;11.884;2022-11-02T05:35:46;10.00;99.90
28835;DHT22;15969;51.536;11.884;2022-11-02T05:38:12;10.00;99.90
28835;DHT22;15969;51.536;11.884;2022-11-02T05:40:37;9.90;99.90
28835;DHT22;15969;51.536;11.884;2022-11-02T05:43:06;9.90;99.90
28835;DHT22;15969;51.536;11.884;2022-11-02T05:45:33;9.80;99.90
28835;DHT22;15969;51.536;11.884;2022-11-02T05:47:59;9.80;99.90
28835;DHT22;15969;51.536;11.884;2022-11-02T05:50:26;9.80;99.90
28835;DHT22;15969;51.536;11.884;2022-11-02T05:52:52;9.70;99.90
28835;DHT22;15969;51.536;11.884;2022-11-02T05:55:18;9.70;99.90
28835;DHT22;15969;51.536;11.884;2022-11-02T05:57:49;9.60;99.90
28835;DHT22;15969;51.536;11.884;2022-11-02T06:00:19;9.60;99.90
28835;DHT22;15969;51.536;11.884;2022-11-02T06:02:46;9.50;99.90
28835;DHT22;15969;51.536;11.884;2022-11-02T06:05:13;9.50;99.90
28835;DHT22;15969;51.536;11.884;2022-11-02T06:07:39;9.40;99.90
28835;DHT22;15969;51.536;11.884;2022-11-02T06:10:05;9.40;99.90
28835;DHT22;15969;51.536;11.884;2022-11-02T06:12:32;9.30;99.90
28835;DHT22;15969;51.536;11.884;2022-11-02T06:14:57;9.30;99.90
28835;DHT22;15969;51.536;11.884;2022-11-02T06:17:23;9.20;99.90
28835;DHT22;15969;51.536;11.884;2022-11-02T06:19:49;9.30;99.90
28835;DHT22;15969;51.536;11.884;2022-11-02T06:22:15;9.20;99.90
28835;DHT22;15969;51.536;11.884;2022-11-02T06:24:41;9.20;99.90
28835;DHT22;15969;51.536;11.884;2022-11-02T06:27:06;9.10;99.90
28835;DHT22;15969;51.536;11.884;2022-11-02T06:29:32;9.10;99.90
28835;DHT22;15969;51.536;11.884;2022-11-02T06:31:58;9.00;99.90
28835;DHT22;15969;51.536;11.884;2022-11-02T06:34:23;9.10;99.90
28835;DHT22;15969;51.536;11.884;2022-11-02T06:36:49;9.10;99.90
28835;DHT22;15969;51.536;11.884;2022-11-02T06:39:15;9.10;99.90
28835;DHT22;15969;51.536;11.884;2022-11-02T06:41:40;9.10;99.90
28835;DHT22;15969;51.536;11.884;2022-11-02T06:44:06;9.00;99.90
28835;DHT22;15969;51.536;11.884;2022-11-02T06:46:32;9.10;99.90
28835;DHT22;15969;51.536;11.884;2022-11-02T06:48:57;9.10;99.90
28835;DHT22;15969;51.536;11.884;2022-11-02T06:51:23;9.10;99.90
28835;DHT22;15969;51.536;11.884;2022-11-02T06:53:49;9.10;99.90
28835;DHT22;15969;51.536;11.884;2022-11-02T06:56:15;9.20;99.90
28835;DHT22;15969;51.536;11.884;2022-11-02T06:58:40;9.30;99.90
28835;DHT22;15969;51.536;11.884;2022-11-02T07:01:07;9.40;99.90
28835;DHT22;15969;51.536;11.884;2022-11-02T07:03:34;9.50;99.90
28835;DHT22;15969;51.536;11.884;2022-11-02T07:06:00;9.60;99.90
28835;DHT22;15969;51.536;11.884;2022-11-02T07:08:26;9.70;99.90
28835;DHT22;15969;51.536;11.884;2022-11-02T07:10:53;9.80;99.90
28835;DHT22;15969;51.536;11.884;2022-11-02T07:13:18;9.90;99.90
28835;DHT22;15969;51.536;11.884;2022-11-02T07:15:44;10.10;99.90
28835;DHT22;15969;51.536;11.884;2022-11-02T07:18:10;10.20;99.90
28835;DHT22;15969;51.536;11.884;2022-11-02T07:20:37;10.30;99.90
28835;DHT22;15969;51.536;11.884;2022-11-02T07:23:03;10.40;99.90
28835;DHT22;15969;51.536;11.884;2022-11-02T07:25:30;10.50;99.90
28835;DHT22;15969;51.536;11.884;2022-11-02T07:27:58;10.60;99.90
28835;DHT22;15969;51.536;11.884;2022-11-02T07:30:25;10.70;99.90
28835;DHT22;15969;51.536;11.884;2022-11-02T07:32:51;10.80;99.90
28835;DHT22;15969;51.536;11.884;2022-11-02T07:35:17;10.90;99.90
28835;DHT22;15969;51.536;11.884;2022-11-02T07:37:43;10.90;99.90
28835;DHT22;15969;51.536;11.884;2022-11-02T07:40:18;11.00;99.90
28835;DHT22;15969;51.536;11.884;2022-11-02T07:42:44;11.10;99.90
28835;DHT22;15969;51.536;11.884;2022-11-02T07:45:13;11.20;99.90
28835;DHT22;15969;51.536;11.884;2022-11-02T07:47:45;11.30;99.90
28835;DHT22;15969;51.536;11.884;2022-11-02T07:50:13;11.40;99.90
28835;DHT22;15969;51.536;11.884;2022-11-02T07:52:49;11.50;99.90
28835;DHT22;15969;51.536;11.884;2022-11-02T07:55:18;11.60;99.90
28835;DHT22;15969;51.536;11.884;2022-11-02T07:57:59;11.70;99.90
28835;DHT22;15969;51.536;11.884;2022-11-02T08:00:32;11.90;99.90
28835;DHT22;15969;51.536;11.884;2022-11-02T08:03:00;12.00;99.90
28835;DHT22;15969;51.536;11.884;2022-11-02T08:05:28;12.10;99.90
28835;DHT22;15969;51.536;11.884;2022-11-02T08:08:05;12.20;99.90
28835;DHT22;15969;51.536;11.884;2022-11-02T08:10:33;12.30;99.90
28835;DHT22;15969;51.536;11.884;2022-11-02T08:12:59;12.40;99.90
28835;DHT22;15969;51.536;11.884;2022-11-02T08:15:25;12.50;99.90
28835;DHT22;15969;51.536;11.884;2022-11-02T08:18:06;12.60;99.90
28835;DHT22;15969;51.536;11.884;2022-11-02T08:20:34;12.70;99.90
28835;DHT22;15969;51.536;11.884;2022-11-02T08:23:01;12.80;99.90
28835;DHT22;15969;51.536;11.884;2022-11-02T08:25:27;12.80;99.90
28835;DHT22;15969;51.536;11.884;2022-11-02T08:27:57;12.90;99.90
28835;DHT22;15969;51.536;11.884;2022-11-02T08:30:24;13.00;99.90
28835;DHT22;15969;51.536;11.884;2022-11-02T08:32:53;13.00;99.90
28835;DHT22;15969;51.536;11.884;2022-11-02T08:35:19;13.10;99.90
28835;DHT22;15969;51.536;11.884;2022-11-02T08:37:54;13.20;99.90
28835;DHT22;15969;51.536;11.884;2022-11-02T08:40:22;13.20;99.90
28835;DHT22;15969;51.536;11.884;2022-11-02T08:42:48;13.30;99.90
28835;DHT22;15969;51.536;11.884;2022-11-02T08:45:14;13.40;99.90
28835;DHT22;15969;51.536;11.884;2022-11-02T08:47:40;13.40;99.90
28835;DHT22;15969;51.536;11.884;2022-11-02T08:50:07;13.50;99.90
28835;DHT22;15969;51.536;11.884;2022-11-02T08:52:35;13.60;99.90
28835;DHT22;15969;51.536;11.884;2022-11-02T08:55:01;13.60;99.90
28835;DHT22;15969;51.536;11.884;2022-11-02T08:57:27;13.70;99.90
28835;DHT22;15969;51.536;11.884;2022-11-02T08:59:52;13.70;99.90
28835;DHT22;15969;51.536;11.884;2022-11-02T09:02:18;13.80;99.90
28835;DHT22;15969;51.536;11.884;2022-11-02T09:04:44;13.80;99.90
28835;DHT22;15969;51.536;11.884;2022-11-02T09:07:09;13.90;99.90
28835;DHT22;15969;51.536;11.884;2022-11-02T09:09:35;13.90;99.90
28835;DHT22;15969;51.536;11.884;2022-11-02T09:12:01;14.00;99.90
28835;DHT22;15969;51.536;11.884;2022-11-02T09:14:26;14.00;99.90
28835;DHT22;15969;51.536;11.884;2022-11-02T09:16:52;14.10;99.90
28835;DHT22;15969;51.536;11.884;2022-11-02T09:19:18;14.20;99.90
28835;DHT22;15969;51.536;11.884;2022-11-02T09:21:43;14.20;99.90
28835;DHT22;15969;51.536;11.884;2022-11-02T09:24:09;14.30;99.90
28835;DHT22;15969;51.536;11.884;2022-11-02T09:26:35;14.30;99.90
28835;DHT22;15969;51.536;11.884;2022-11-02T09:29:00;14.40;99.90
28835;DHT22;15969;51.536;11.884;2022-11-02T09:31:26;14.50;99.90
28835;DHT22;15969;51.536;11.884;2022-11-02T09:33:53;14.50;99.90
28835;DHT22;15969;51.536;11.884;2022-11-02T09:36:19;14.50;99.90
28835;DHT22;15969;51.536;11.884;2022-11-02T09:38:45;14.60;99.90
28835;DHT22;15969;51.536;11.884;2022-11-02T09:41:16;14.60;99.90
28835;DHT22;15969;51.536;11.884;2022-11-02T09:46:46;14.70;99.90
28835;DHT22;15969;51.536;11.884;2022-11-02T09:49:18;14.70;99.90
28835;DHT22;15969;51.536;11.884;2022-11-02T09:51:57;14.80;99.90
28835;DHT22;15969;51.536;11.884;2022-11-02T09:54:35;14.80;99.90
28835;DHT22;15969;51.536;11.884;2022-11-02T09:57:15;14.80;99.90
28835;DHT22;15969;51.536;11.884;2022-11-02T09:59:45;14.90;99.90
28835;DHT22;15969;51.536;11.884;2022-11-02T10:02:17;14.90;99.90
28835;DHT22;15969;51.536;11.884;2022-11-02T10:05:36;14.90;99.90
28835;DHT22;15969;51.536;11.884;2022-11-02T10:08:15;14.90;99.90
28835;DHT22;15969;51.536;11.884;2022-11-02T10:13:50;15.10;99.90
28835;DHT22;15969;51.536;11.884;2022-11-02T10:16:43;15.10;99.90
28835;DHT22;15969;51.536;11.884;2022-11-02T10:19:18;15.10;99.90
28835;DHT22;15969;51.536;11.884;2022-11-02T10:21:47;15.20;99.90
28835;DHT22;15969;51.536;11.884;2022-11-02T10:24:39;15.20;99.90
28835;DHT22;15969;51.536;11.884;2022-11-02T10:27:28;15.30;99.90
28835;DHT22;15969;51.536;11.884;2022-11-02T10:32:31;15.30;99.90
28835;DHT22;15969;51.536;11.884;2022-11-02T10:35:02;15.40;99.90
28835;DHT22;15969;51.536;11.884;2022-11-02T10:38:04;15.40;99.90
28835;DHT22;15969;51.536;11.884;2022-11-02T10:43:46;15.50;99.90
28835;DHT22;15969;51.536;11.884;2022-11-02T10:52:13;15.70;99.90
28835;DHT22;15969;51.536;11.884;2022-11-02T10:54:40;15.70;99.90
28835;DHT22;15969;51.536;11.884;2022-11-02T10:57:13;15.70;99.90
28835;DHT22;15969;51.536;11.884;2022-11-02T10:59:39;15.60;99.90
28835;DHT22;15969;51.536;11.884;2022-11-02T11:02:13;15.60;99.90
28835;DHT22;15969;51.536;11.884;2022-11-02T11:04:40;15.70;99.90
28835;DHT22;15969;51.536;11.884;2022-11-02T11:07:14;15.80;99.90
28835;DHT22;15969;51.536;11.884;2022-11-02T11:09:55;15.90;99.90
28835;DHT22;15969;51.536;11.884;2022-11-02T11:15:03;15.90;99.90
28835;DHT22;15969;51.536;11.884;2022-11-02T11:17:34;15.90;99.90
28835;DHT22;15969;51.536;11.884;2022-11-02T11:20:04;16.00;99.90
28835;DHT22;15969;51.536;11.884;2022-11-02T11:22:38;16.10;99.90
28835;DHT22;15969;51.536;11.884;2022-11-02T11:25:24;16.20;99.90
28835;DHT22;15969;51.536;11.884;2022-11-02T11:30:28;16.40;99.60
28835;DHT22;15969;51.536;11.884;2022-11-02T11:32:59;16.50;98.90
28835;DHT22;15969;51.536;11.884;2022-11-02T11:35:30;16.60;99.20
28835;DHT22;15969;51.536;11.884;2022-11-02T11:38:14;16.70;99.40
28835;DHT22;15969;51.536;11.884;2022-11-02T11:40:47;16.90;99.00
28835;DHT22;15969;51.536;11.884;2022-11-02T11:43:20;16.90;97.70
28835;DHT22;15969;51.536;11.884;2022-11-02T11:45:55;17.00;96.70
28835;DHT22;15969;51.536;11.884;2022-11-02T11:51:05;17.20;95.70
28835;DHT22;15969;51.536;11.884;2022-11-02T11:56:56;17.30;95.90
28835;DHT22;15969;51.536;11.884;2022-11-02T11:59:46;17.20;95.40
28835;DHT22;15969;51.536;11.884;2022-11-02T12:05:00;17.10;94.60
28835;DHT22;15969;51.536;11.884;2022-11-02T12:13:59;16.80;95.10
28835;DHT22;15969;51.536;11.884;2022-11-02T12:19:53;16.80;96.10
28835;DHT22;15969;51.536;11.884;2022-11-02T12:22:46;16.90;96.00
28835;DHT22;15969;51.536;11.884;2022-11-02T12:31:45;17.10;95.00
28835;DHT22;15969;51.536;11.884;2022-11-02T12:38:16;17.30;95.00
28835;DHT22;15969;51.536;11.884;2022-11-02T12:41:12;17.50;94.60
28835;DHT22;15969;51.536;11.884;2022-11-02T12:43:47;17.60;94.10
28835;DHT22;15969;51.536;11.884;2022-11-02T12:46:23;17.70;93.20
28835;DHT22;15969;51.536;11.884;2022-11-02T12:49:04;17.90;93.80
28835;DHT22;15969;51.536;11.884;2022-11-02T12:54:20;19.40;92.60
28835;DHT22;15969;51.536;11.884;2022-11-02T12:56:51;20.80;90.40
28835;DHT22;15969;51.536;11.884;2022-11-02T12:59:32;22.40;85.40
28835;DHT22;15969;51.536;11.884;2022-11-02T13:02:09;24.50;81.10
28835;DHT22;15969;51.536;11.884;2022-11-02T13:04:45;26.00;74.50
28835;DHT22;15969;51.536;11.884;2022-11-02T13:07:18;27.20;68.50
28835;DHT22;15969;51.536;11.884;2022-11-02T13:18:01;28.70;56.30
28835;DHT22;15969;51.536;11.884;2022-11-02T13:26:02;29.40;53.80
28835;DHT22;15969;51.536;11.884;2022-11-02T13:28:41;29.00;52.60
28835;DHT22;15969;51.536;11.884;2022-11-02T13:31:15;29.10;52.80
28835;DHT22;15969;51.536;11.884;2022-11-02T13:33:53;29.60;52.50
28835;DHT22;15969;51.536;11.884;2022-11-02T13:44:08;28.40;50.70
28835;DHT22;15969;51.536;11.884;2022-11-02T13:47:00;26.90;52.10
28835;DHT22;15969;51.536;11.884;2022-11-02T13:49:47;25.80;54.30
28835;DHT22;15969;51.536;11.884;2022-11-02T13:52:19;25.30;55.80
28835;DHT22;15969;51.536;11.884;2022-11-02T13:54:55;25.90;55.20
28835;DHT22;15969;51.536;11.884;2022-11-02T13:57:38;26.60;54.40
28835;DHT22;15969;51.536;11.884;2022-11-02T14:03:21;26.80;54.00
28835;DHT22;15969;51.536;11.884;2022-11-02T14:05:52;27.00;53.60
28835;DHT22;15969;51.536;11.884;2022-11-02T14:08:33;27.10;53.40
28835;DHT22;15969;51.536;11.884;2022-11-02T14:12:09;27.10;53.40
28835;DHT22;15969;51.536;11.884;2022-11-02T14:19:23;26.60;54.50
28835;DHT22;15969;51.536;11.884;2022-11-02T14:27:25;26.00;53.60
28835;DHT22;15969;51.536;11.884;2022-11-02T14:29:50;25.10;54.80
28835;DHT22;15969;51.536;11.884;2022-11-02T14:46:25;20.60;62.60
28835;DHT22;15969;51.536;11.884;2022-11-02T14:49:18;20.40;63.70
28835;DHT22;15969;51.536;11.884;2022-11-02T14:51:57;20.60;64.10
28835;DHT22;15969;51.536;11.884;2022-11-02T14:54:27;20.50;64.50
28835;DHT22;15969;51.536;11.884;2022-11-02T14:56:57;20.40;65.80
28835;DHT22;15969;51.536;11.884;2022-11-02T14:59:46;20.10;65.40
28835;DHT22;15969;51.536;11.884;2022-11-02T15:04:58;19.70;67.60
28835;DHT22;15969;51.536;11.884;2022-11-02T15:07:35;19.30;68.30
28835;DHT22;15969;51.536;11.884;2022-11-02T15:12:45;18.90;70.30
28835;DHT22;15969;51.536;11.884;2022-11-02T15:15:34;18.60;71.50
28835;DHT22;15969;51.536;11.884;2022-11-02T15:23:50;18.00;74.40
28835;DHT22;15969;51.536;11.884;2022-11-02T15:26:23;17.80;75.60
28835;DHT22;15969;51.536;11.884;2022-11-02T15:29:02;17.60;75.90
28835;DHT22;15969;51.536;11.884;2022-11-02T15:31:29;17.40;77.30
28835;DHT22;15969;51.536;11.884;2022-11-02T15:33:57;17.20;77.80
28835;DHT22;15969;51.536;11.884;2022-11-02T15:36:34;17.00;78.50
28835;DHT22;15969;51.536;11.884;2022-11-02T15:39:06;16.90;79.90
28835;DHT22;15969;51.536;11.884;2022-11-02T15:41:43;16.70;81.10
28835;DHT22;15969;51.536;11.884;2022-11-02T15:46:57;16.30;83.30
28835;DHT22;15969;51.536;11.884;2022-11-02T15:53:06;15.80;86.00
28835;DHT22;15969;51.536;11.884;2022-11-02T15:55:59;15.60;87.00
28835;DHT22;15969;51.536;11.884;2022-11-02T16:04:30;15.10;89.00
28835;DHT22;15969;51.536;11.884;2022-11-02T16:06:56;14.80;89.70
28835;DHT22;15969;51.536;11.884;2022-11-02T16:09:32;14.60;90.10
28835;DHT22;15969;51.536;11.884;2022-11-02T16:12:09;14.50;90.60
28835;DHT22;15969;51.536;11.884;2022-11-02T16:15:07;14.20;91.10
28835;DHT22;15969;51.536;11.884;2022-11-02T16:17:36;14.00;91.20
28835;DHT22;15969;51.536;11.884;2022-11-02T16:22:47;13.60;92.40
28835;DHT22;15969;51.536;11.884;2022-11-02T16:25:35;13.40;93.20
28835;DHT22;15969;51.536;11.884;2022-11-02T16:33:44;13.00;94.90
28835;DHT22;15969;51.536;11.884;2022-11-02T16:36:28;12.80;95.50
28835;DHT22;15969;51.536;11.884;2022-11-02T16:39:01;12.60;96.10
28835;DHT22;15969;51.536;11.884;2022-11-02T16:41:36;12.40;96.10
28835;DHT22;15969;51.536;11.884;2022-11-02T16:44:10;12.20;96.30
28835;DHT22;15969;51.536;11.884;2022-11-02T16:49:19;12.00;96.80
28835;DHT22;15969;51.536;11.884;2022-11-02T16:51:49;11.80;97.50
28835;DHT22;15969;51.536;11.884;2022-11-02T16:54:27;11.70;97.60
28835;DHT22;15969;51.536;11.884;2022-11-02T16:57:04;11.50;98.10
28835;DHT22;15969;51.536;11.884;2022-11-02T17:00:15;11.50;99.40
28835;DHT22;15969;51.536;11.884;2022-11-02T17:02:43;11.30;99.70
28835;DHT22;15969;51.536;11.884;2022-11-02T17:05:19;11.20;99.90
28835;DHT22;15969;51.536;11.884;2022-11-02T17:10:31;11.00;99.90
28835;DHT22;15969;51.536;11.884;2022-11-02T17:12:58;10.80;99.90
28835;DHT22;15969;51.536;11.884;2022-11-02T17:15:27;10.60;99.90
28835;DHT22;15969;51.536;11.884;2022-11-02T17:20:32;10.40;99.90
28835;DHT22;15969;51.536;11.884;2022-11-02T17:23:00;10.20;99.90
28835;DHT22;15969;51.536;11.884;2022-11-02T17:25:51;10.20;99.90
28835;DHT22;15969;51.536;11.884;2022-11-02T17:30:59;10.10;99.90
28835;DHT22;15969;51.536;11.884;2022-11-02T17:33:27;10.00;99.90
28835;DHT22;15969;51.536;11.884;2022-11-02T17:35:56;10.00;99.90
28835;DHT22;15969;51.536;11.884;2022-11-02T17:38:28;9.90;99.90
28835;DHT22;15969;51.536;11.884;2022-11-02T17:40:54;9.80;99.90
28835;DHT22;15969;51.536;11.884;2022-11-02T17:43:22;9.90;99.90
28835;DHT22;15969;51.536;11.884;2022-11-02T17:45:58;9.90;99.90
28835;DHT22;15969;51.536;11.884;2022-11-02T17:48:25;9.80;99.90
28835;DHT22;15969;51.536;11.884;2022-11-02T17:50:53;9.80;99.90
28835;DHT22;15969;51.536;11.884;2022-11-02T17:53:21;9.80;99.90
28835;DHT22;15969;51.536;11.884;2022-11-02T17:55:47;9.60;99.90
28835;DHT22;15969;51.536;11.884;2022-11-02T17:58:13;9.40;99.90
28835;DHT22;15969;51.536;11.884;2022-11-02T18:00:40;9.30;99.90
28835;DHT22;15969;51.536;11.884;2022-11-02T18:03:14;9.30;99.90
28835;DHT22;15969;51.536;11.884;2022-11-02T18:05:43;9.20;99.90
28835;DHT22;15969;51.536;11.884;2022-11-02T18:08:09;9.10;99.90
28835;DHT22;15969;51.536;11.884;2022-11-02T18:10:43;9.00;99.90
28835;DHT22;15969;51.536;11.884;2022-11-02T18:13:15;9.00;99.90
28835;DHT22;15969;51.536;11.884;2022-11-02T18:15:42;8.90;99.90
28835;DHT22;15969;51.536;11.884;2022-11-02T18:18:09;8.70;99.90
28835;DHT22;15969;51.536;11.884;2022-11-02T18:20:36;8.60;99.90
28835;DHT22;15969;51.536;11.884;2022-11-02T18:23:03;8.50;99.90
28835;DHT22;15969;51.536;11.884;2022-11-02T18:25:29;8.40;99.90
28835;DHT22;15969;51.536;11.884;2022-11-02T18:27:56;8.30;99.90
28835;DHT22;15969;51.536;11.884;2022-11-02T18:30:23;8.30;99.90
28835;DHT22;15969;51.536;11.884;2022-11-02T18:32:51;8.20;99.90
28835;DHT22;15969;51.536;11.884;2022-11-02T18:35:18;8.20;99.90
28835;DHT22;15969;51.536;11.884;2022-11-02T18:37:45;8.20;99.90
28835;DHT22;15969;51.536;11.884;2022-11-02T18:40:14;8.10;99.90
28835;DHT22;15969;51.536;11.884;2022-11-02T18:42:42;8.30;99.90
28835;DHT22;15969;51.536;11.884;2022-11-02T18:45:09;8.40;99.90
28835;DHT22;15969;51.536;11.884;2022-11-02T18:47:37;8.40;99.90
28835;DHT22;15969;51.536;11.884;2022-11-02T18:50:03;8.40;99.90
28835;DHT22;15969;51.536;11.884;2022-11-02T18:52:31;8.20;99.90